Flight Track Log - Related Links

Times and Time Zones

All times are in EDT time to prevent confusion due to time zone crossing. See the N3673U flight status page for this flight to view local times or setup timezone preferences in your user account.

Time Position Orientation Groundspeed Altitude Reporting Facility
EDT Latitude Longitude Course Direction KTS MPH feet Rate Location/Type
Tue 03:02:20 PM 36.2547 -83.3692 297° West 134 154 4,000  Level Atlanta Center
Tue 03:03:20 PM 36.2694 -83.4053 297° West 144 166 5,000 1,000 Climbing Atlanta Center
Tue 03:04:20 PM 36.2925 -83.4308 318° Northwest 132 152 6,000 480 Climbing Atlanta Center
Tue 03:05:25 PM 36.3308 -83.4403 349° North 130 150 6,000  Level Indianapolis Center
Tue 03:06:27 PM 36.3761 -83.4567 344° North 157 181 6,000  Level Indianapolis Center
Tue 03:07:29 PM 36.4214 -83.4733 344° North 166 191 6,000 -48 Level Indianapolis Center
Tue 03:08:31 PM 36.4769 -83.4936 344° North 175 201 5,900  Descending Indianapolis Center
Tue 03:09:33 PM 36.5236 -83.5144 340° North 174 200 6,000 48 Climbing Indianapolis Center
Tue 03:10:35 PM 36.5692 -83.5264 348° North 172 198 6,000 339 Level Indianapolis Center
Tue 03:11:37 PM 36.6122 -83.5369 349° North 163 188 6,700 484 Climbing Indianapolis Center
Tue 03:12:39 PM 36.6506 -83.5492 346° North 149 171 7,000 145 Climbing Indianapolis Center
Tue 03:13:41 PM 36.6944 -83.5642 345° North 156 180 7,000  Level Indianapolis Center
Tue 03:14:43 PM 36.7469 -83.5814 345° North 165 190 7,000  Level Indianapolis Center
Tue 03:15:45 PM 36.7928 -83.5983 344° North 169 194 7,000  Level Indianapolis Center
Tue 03:16:47 PM 36.8394 -83.6128 346° North 171 197 7,000  Level Indianapolis Center
Tue 03:17:49 PM 36.8842 -83.6289 344° North 169 194 7,000  Level Indianapolis Center
Tue 03:18:51 PM 36.9286 -83.6419 347° North 166 191 7,000  Level Indianapolis Center
Tue 03:19:53 PM 36.9733 -83.6578 344° North 165 190 7,000 48 Level Indianapolis Center
Tue 03:20:55 PM 37.0247 -83.6761 344° North 165 190 7,100 384 Climbing Indianapolis Center
Tue 03:21:58 PM 37.0642 -83.6878 347° North 152 175 7,800 484 Climbing Indianapolis Center
Tue 03:22:59 PM 37.1011 -83.7000 345° North 140 161 8,100 146 Climbing Indianapolis Center
Tue 03:24:01 PM 37.1436 -83.7131 346° North 150 173 8,100 -48 Level Indianapolis Center
Tue 03:25:04 PM 37.1892 -83.7289 345° North 163 188 8,000 -48 Descending Indianapolis Center
Tue 03:26:06 PM 37.2336 -83.7439 345° North 165 190 8,000  Level Indianapolis Center
Tue 03:27:08 PM 37.2853 -83.7625 344° North 166 191 8,000  Level Indianapolis Center
Tue 03:28:10 PM 37.3303 -83.7769 346° North 167 192 8,000  Level Indianapolis Center
Tue 03:29:12 PM 37.3739 -83.7908 346° North 162 186 8,000  Level Indianapolis Center
Tue 03:30:14 PM 37.4197 -83.8067 345° North 167 192 8,000  Level Indianapolis Center
Tue 03:31:16 PM 37.4636 -83.8228 344° North 166 191 8,000 -48 Level Indianapolis Center
Tue 03:32:18 PM 37.5175 -83.8411 345° North 169 194 7,900  Descending Indianapolis Center
Tue 03:33:20 PM 37.5606 -83.8539 347° North 163 188 8,000 48 Climbing Indianapolis Center
Tue 03:34:22 PM 37.6039 -83.8697 344° North 162 186 8,000  Level Indianapolis Center
Tue 03:35:24 PM 37.6494 -83.8861 344° North 167 192 8,000  Level Indianapolis Center
Tue 03:36:26 PM 37.6956 -83.9006 346° North 168 193 8,000  Level Indianapolis Center
Tue 03:37:28 PM 37.7397 -83.9158 345° North 166 191 8,000  Level Indianapolis Center
Tue 03:38:30 PM 37.7919 -83.9339 345° North 166 191 8,000  Level Indianapolis Center
Tue 03:39:32 PM 37.8378 -83.9500 344° North 169 194 8,000  Level Indianapolis Center
Tue 03:40:34 PM 37.8825 -83.9647 345° North 167 192 8,000  Level Indianapolis Center
Tue 03:41:36 PM 37.9267 -83.9789 346° North 165 190 8,000  Level Indianapolis Center
Tue 03:42:38 PM 37.9711 -83.9944 345° North 165 190 8,000  Level Indianapolis Center
Tue 03:43:41 PM 38.0236 -84.0139 344° North 168 193 8,000  Level Indianapolis Center
Tue 03:44:43 PM 38.0711 -84.0269 348° North 172 198 8,000  Level Indianapolis Center
Tue 03:45:45 PM 38.1153 -84.0458 341° North 169 194 8,000  Level Indianapolis Center
Tue 03:46:47 PM 38.1622 -84.0592 347° North 172 198 8,000  Level Indianapolis Center
Tue 03:47:49 PM 38.2086 -84.0767 343° North 172 198 8,000  Level Indianapolis Center
Tue 03:48:51 PM 38.2550 -84.0922 345° North 173 199 8,000  Level Indianapolis Center
Tue 03:49:53 PM 38.3106 -84.1106 345° North 175 201 8,000  Level Indianapolis Center
Tue 03:50:55 PM 38.3569 -84.1278 344° North 175 201 8,000  Level Indianapolis Center
Tue 03:51:57 PM 38.4050 -84.1431 346° North 177 204 8,000  Level Indianapolis Center
Tue 03:52:59 PM 38.4517 -84.1592 345° North 175 201 8,000  Level Indianapolis Center
Tue 03:54:01 PM 38.4986 -84.1747 345° North 173 199 8,000  Level Indianapolis Center
Tue 03:55:03 PM 38.5536 -84.1939 345° North 175 201 8,000  Level Indianapolis Center
Tue 03:56:05 PM 38.6003 -84.2114 344° North 173 199 8,000  Level Indianapolis Center
Tue 03:57:07 PM 38.6461 -84.2278 344° North 175 201 8,000  Level Indianapolis Center
Tue 03:58:09 PM 38.6964 -84.2389 350° North 177 204 8,000  Level Indianapolis Center
Tue 03:59:11 PM 38.7464 -84.2431 356° North 180 207 8,000  Level Indianapolis Center
Tue 04:00:13 PM 38.7936 -84.2483 355° North 176 203 8,000  Level Indianapolis Center
Tue 04:01:15 PM 38.8431 -84.2561 353° North 174 200 8,000  Level Indianapolis Center
Tue 04:02:17 PM 38.9003 -84.2633 354° North 176 203 8,000  Level Indianapolis Center
Tue 04:03:19 PM 38.9467 -84.2806 344° North 174 200 8,000  Level Indianapolis Center
Tue 04:04:21 PM 38.9944 -84.2989 343° North 176 203 8,000  Level Indianapolis Center
Tue 04:05:23 PM 39.0425 -84.3186 342° North 179 206 8,000  Level Indianapolis Center
Tue 04:06:25 PM 39.0903 -84.3358 344° North 177 204 8,000  Level Indianapolis Center
Tue 04:07:27 PM 39.1383 -84.3528 345° North 178 205 8,000  Level Indianapolis Center
Tue 04:08:29 PM 39.1878 -84.3714 344° North 182 209 8,000  Level Indianapolis Center
Tue 04:09:31 PM 39.2364 -84.3889 344° North 181 208 8,000  Level Indianapolis Center
Tue 04:10:33 PM 39.2914 -84.4092 344° North 176 203 8,000  Level Indianapolis Center
Tue 04:11:21 PM 39.3286 -84.4253 341° North 174 200 8,000  Level Indianapolis Center
Tue 04:12:16 PM 39.3694 -84.4364 348° North 178 205 8,000  Level Indianapolis Center
Tue 04:13:16 PM 39.4217 -84.4406 356° North 174 200 8,000  Level Indianapolis Center
Tue 04:14:29 PM 39.4739 -84.4694 337° Northwest 178 205 8,000  Level Indianapolis Center
Tue 04:15:30 PM 39.5244 -84.4925 341° North 180 207 8,000  Level Indianapolis Center
Tue 04:16:25 PM 39.5647 -84.5114 340° North 177 204 8,000  Level Indianapolis Center
Tue 04:17:13 PM 39.6025 -84.5356 334° Northwest 180 207 8,000  Level Indianapolis Center
Tue 04:17:47 PM 39.6211 -84.5467 335° Northwest 179 206 8,000  Level Indianapolis Center
Tue 04:18:49 PM 39.6753 -84.5778 336° Northwest 179 206 8,000  Level Indianapolis Center
Tue 04:19:27 PM 39.7044 -84.5958 335° Northwest 181 208 8,000  Level Indianapolis Center
Tue 04:20:16 PM 39.7408 -84.6144 339° North 182 209 8,000  Level Indianapolis Center
Tue 04:20:53 PM 39.7706 -84.6222 349° North 181 208 8,000  Level Indianapolis Center
Tue 04:21:55 PM 39.8192 -84.6436 341° North 182 209 8,000  Level Indianapolis Center
Tue 04:22:29 PM 39.8486 -84.6539 345° North 182 209 8,000  Level Indianapolis Center
Tue 04:23:18 PM 39.8894 -84.6675 346° North 180 207 8,000  Level Indianapolis Center
Tue 04:23:59 PM 39.9169 -84.6786 343° North 179 206 8,000  Level Indianapolis Center
Tue 04:25:01 PM 39.9664 -84.6953 346° North 180 207 8,000  Level Indianapolis Center
Tue 04:26:02 PM 40.0136 -84.7142 343° North 179 206 8,000  Level Indianapolis Center
Tue 04:27:04 PM 40.0633 -84.7311 345° North 180 207 8,000  Level Indianapolis Center
Tue 04:28:06 PM 40.1197 -84.7522 344° North 180 207 8,000  Level Indianapolis Center
Tue 04:29:08 PM 40.1681 -84.7694 345° North 177 204 8,000  Level Indianapolis Center
Tue 04:30:10 PM 40.2161 -84.7886 343° North 178 205 8,000  Level Indianapolis Center
Tue 04:31:12 PM 40.2642 -84.8056 345° North 178 205 8,000  Level Indianapolis Center
Tue 04:32:14 PM 40.3128 -84.8231 345° North 178 205 8,000  Level Indianapolis Center
Tue 04:33:16 PM 40.3619 -84.8400 345° North 180 207 8,000  Level Indianapolis Center
Tue 04:34:17 PM 40.4092 -84.8589 343° North 177 204 8,000  Level Indianapolis Center
Tue 04:35:19 PM 40.4575 -84.8761 345° North 178 205 8,000  Level Indianapolis Center
Tue 04:36:21 PM 40.5131 -84.8953 345° North 176 203 8,000  Level Indianapolis Center
Tue 04:37:23 PM 40.5558 -84.9139 342° North 177 204 8,000  Level Indianapolis Center
Tue 04:38:25 PM 40.6039 -84.9300 346° North 178 205 8,000  Level Indianapolis Center
Tue 04:39:27 PM 40.6497 -84.9481 343° North 175 201 8,000  Level Indianapolis Center
Tue 04:40:29 PM 40.7064 -84.9706 343° North 177 204 8,000  Level Indianapolis Center
Tue 04:41:31 PM 40.7550 -84.9867 346° North 179 206 8,000  Level Indianapolis Center
Tue 04:42:33 PM 40.8025 -85.0031 345° North 179 206 8,000  Level Indianapolis Center
Tue 04:43:35 PM 40.8497 -85.0219 343° North 178 205 8,000  Level Indianapolis Center
Tue 04:44:37 PM 40.8989 -85.0403 344° North 180 207 8,000  Level Indianapolis Center
Tue 04:45:39 PM 40.9475 -85.0581 345° North 182 209 8,000  Level Indianapolis Center
Tue 04:46:41 PM 41.0058 -85.0817 343° North 183 211 8,000  Level Indianapolis Center
Tue 04:47:43 PM 41.0547 -85.0997 344° North 183 211 8,000  Level Indianapolis Center
Tue 04:48:45 PM 41.1036 -85.1156 346° North 183 211 8,000  Level Indianapolis Center
Tue 04:49:47 PM 41.1525 -85.1347 344° North 182 209 8,000  Level Indianapolis Center
Tue 04:50:48 PM 41.2008 -85.1542 343° North 182 209 8,000  Level Indianapolis Center

Login

Don't have an account? Register now (free) for customized features, flight alerts, and more!